Portada
METAR-TAF:

METAR-TAF

Aeropuertos :

Aeropuerto Internacional Jacinto Lara

Barquisimeto, Venezuela

latitud: 10-04N, longitud: 069-19W, altitud: 613 m

Observación

El informe se hizo hace 8 horas y 42 minutos, a las 00:00 UTC
Viento 10 kt del este-sureste
Temperatura 21°C
Humedad 100%
Presión 1014 hPa
Visibilidad 10 km o más
Cielo nuboso a una altura de 1600 ft

METAR: SVBM 180000Z 11010KT 9999 BKN016 21/21 Q1014

Hora: 04:42 (08:42 UTC)

Pronóstico

El informe se hizo hace 22 horas y 42 minutos, a las 10:00 UTC
Pronóstico válido del 17 a las 12 UTC al 18 a las 12 UTC
Viento 7 kt del este
Visibilidad 10 km o más
Cielo nuboso a una altura de 2000 ft
Evolucionando progresivamente
del 17 a las 14 UTC al 17 a las 17 UTC
Viento 10 kt del este
Visibilidad 10 km o más
Cielo nuboso a una altura de 1300 ft
llovizna

TAF: SVBM 171000Z 1712/1812 10007KT 9999 BKN020 TX31/18Z TN20/08Z BECMG 1714/1717 09010KT 9999 DZ BKN013

Observaciones y pronósticos meteorológicos de más de 4000 aeropuertos (mensajes METAR y TAF).

Los puntos amarillos y rojos representan las estaciones disponibles.

Ponga el ratón en el punto deseado para ver el nombre de la estación.

Haga clic para ver las observaciones y los pronósticos meteorológicos.

Para cambiar el mapa : haga clic en los botones verdes con una cruz de color negro para hacer un zoom, en el botón verde con un guión para alejar o en las flechas verdes para mapas adyacentes.


METAR-TAF: